Tasman Crusader — A8NQ7 — position and weather

sailwx.info

Track history (hours):
 
Tides and Currents Weather Stations Pressure Air Temp Water Temp Dewpoint Dewpoint Depression Visibility Wind Speed Wind Dir Waves Ship Positions

Tasman Crusader

Last reported at 2015-Apr-19 22:33 UTC. Time now 2015-Apr-19 23:00 UTC.
Position N 31°48' W 117°23'.

Length 186 m; draft 9.1 m.

Type: Cargo ship. MMSI: 636091434.

Date/timePositionNaut miles runAvg speedWind from/ knotsBaromVisibWave heightAir tempDewpointWater temp
2015-Apr-19 22:33N 31°48' W 117°23'1111.2
2015-Apr-19 21:33N 31°58' W 117°28'1111.0
2015-Apr-19 20:33N 32°09' W 117°32'1110.9
2015-Apr-19 19:33N 32°19' W 117°36'1110.6
2015-Apr-19 18:33N 32°29' W 117°41'1110.6
2015-Apr-19 17:33N 32°38' W 117°45'1010.1
2015-Apr-19 16:33N 32°48' W 117°50'1010.1
2015-Apr-19 15:33N 32°57' W 117°55'1010.1
2015-Apr-19 14:33N 33°06' W 117°60'1010.0
2015-Apr-19 13:33N 33°16' W 118°04'1010.4
2015-Apr-19 12:33N 33°25' W 118°09'1110.8
2015-Apr-19 11:33N 33°35' W 118°13'9 9.1
2015-Apr-19 10:33N 33°44' W 118°13'2 1.8
2015-Apr-19 09:30N 33°46' W 118°14'0 0.0
2015-Apr-19 08:30N 33°46' W 118°14'0 0.0
2015-Apr-19 07:21N 33°46' W 118°14'0 0.0
2015-Apr-19 06:12N 33°46' W 118°14'0 0.0
2015-Apr-19 05:30N 33°46' W 118°14'0 0.0
2015-Apr-19 04:12N 33°46' W 118°14'0 0.0
2015-Apr-19 03:30N 33°46' W 118°14'0 0.0
2015-Apr-19 02:30N 33°46' W 118°14'0 0.0
2015-Apr-19 01:33N 33°46' W 118°14'0 0.0
2015-Apr-19 00:33N 33°46' W 118°14'0 0.0
2015-Apr-18 23:30N 33°46' W 118°14'0 0.1
2015-Apr-18 22:33N 33°46' W 118°14'2 1.9
2015-Apr-18 21:33N 33°44' W 118°13'0 0.1
2015-Apr-18 20:33N 33°44' W 118°13'0 0.0
2015-Apr-18 19:33N 33°44' W 118°13'0 0.1
2015-Apr-18 18:33N 33°44' W 118°13'0 0.0
2015-Apr-18 17:33N 33°44' W 118°13'0 0.1
2015-Apr-18 16:33N 33°44' W 118°13'0 0.1
2015-Apr-18 15:30N 33°44' W 118°13'0 0.1
2015-Apr-18 14:30N 33°44' W 118°13'0 0.1
2015-Apr-18 13:33N 33°44' W 118°13'0 0.0
2015-Apr-18 12:30N 33°44' W 118°13'0 0.1
2015-Apr-18 11:33N 33°44' W 118°13'0 0.1
2015-Apr-18 10:30N 33°44' W 118°13'2 1.7
2015-Apr-18 09:33N 33°43' W 118°11'8 8.2
2015-Apr-18 08:33N 33°36' W 118°15'8 8.2
2015-Apr-18 07:33N 33°38' W 118°25'1111.5
2015-Apr-18 06:33N 33°43' W 118°37'1211.8
2015-Apr-18 05:33N 33°49' W 118°49'1211.6
2015-Apr-18 04:33N 33°55' W 119°01'1211.6
2015-Apr-18 03:33N 34°01' W 119°13'8 5.4
2015-Apr-18 02:06N 34°09' W 119°12'0 0.0
2015-Apr-18 01:33N 34°09' W 119°12'0 0.0
2015-Apr-18 00:33N 34°09' W 119°12'0 0.0
2015-Apr-17 21:33N 34°09' W 119°12'0 0.0
2015-Apr-17 20:33N 34°09' W 119°12'0 0.0
2015-Apr-17 19:33N 34°09' W 119°12'0 0.0
2015-Apr-17 03:09N 34°09' W 119°12'0 0.0
2015-Apr-16 02:06N 34°09' W 119°12'0 0.0
2015-Apr-16 01:33N 34°09' W 119°12'0 0.0
2015-Apr-16 00:30N 34°09' W 119°12'0 0.0
2015-Apr-15 23:33N 34°09' W 119°12'5 5.0
2015-Apr-15 22:33N 34°04' W 119°15'8 8.1
2015-Apr-15 21:34N 34°00' W 119°07'9 8.9
2015-Apr-15 20:33N 33°56' W 118°57'9 9.2
2015-Apr-15 19:32N 33°51' W 118°47'10 9.8
2015-Apr-15 18:33N 33°46' W 118°38'10 9.7
2015-Apr-15 17:33N 33°41' W 118°27'10 9.7
2015-Apr-15 16:33N 33°38' W 118°17'9 9.4
2015-Apr-15 15:33N 33°32' W 118°08'1110.8
2015-Apr-15 14:33N 33°22' W 118°03'1211.8
2015-Apr-15 13:33N 33°11' W 117°58'1212.4
2015-Apr-15 12:33N 32°59' W 117°54'1413.9
2015-Apr-15 11:33N 32°46' W 117°48'1414.0
2015-Apr-15 10:34N 32°33' W 117°42'1413.7
2015-Apr-15 09:33N 32°20' W 117°37'1613.3
2015-Apr-15 08:22N 32°05' W 117°31'3812.4
2015-Apr-15 05:18N 31°29' W 117°16'911.4
2015-Apr-15 04:32N 31°21' W 117°12'1111.4
2015-Apr-15 03:33N 31°10' W 117°08'2411.5
2015-Apr-15 01:29N 30°48' W 116°58'21612.7
2015-Apr-14 08:32N 27°28' W 115°24'  
Track history (hours):
 
Tides and Currents Weather Stations Pressure Air Temp Water Temp Dewpoint Dewpoint Depression Visibility Wind Speed Wind Dir Waves Ship Positions

Tasman Crusader

Last reported at 2015-Apr-19 22:33 UTC. Time now 2015-Apr-19 23:00 UTC.
Position N 31°48' W 117°23'.

Length 186 m; draft 9.1 m.

Type: Cargo ship. MMSI: 636091434.

Date/timePositionNaut miles runAvg speedWind from/ knotsBaromVisibWave heightAir tempDewpointWater temp
2015-Apr-19 22:33N 31°48' W 117°23'1111.2
2015-Apr-19 21:33N 31°58' W 117°28'1111.0
2015-Apr-19 20:33N 32°09' W 117°32'1110.9
2015-Apr-19 19:33N 32°19' W 117°36'1110.6
2015-Apr-19 18:33N 32°29' W 117°41'1110.6
2015-Apr-19 17:33N 32°38' W 117°45'1010.1
2015-Apr-19 16:33N 32°48' W 117°50'1010.1
2015-Apr-19 15:33N 32°57' W 117°55'1010.1
2015-Apr-19 14:33N 33°06' W 117°60'1010.0
2015-Apr-19 13:33N 33°16' W 118°04'1010.4
2015-Apr-19 12:33N 33°25' W 118°09'1110.8
2015-Apr-19 11:33N 33°35' W 118°13'9 9.1
2015-Apr-19 10:33N 33°44' W 118°13'2 1.8
2015-Apr-19 09:30N 33°46' W 118°14'0 0.0
2015-Apr-19 08:30N 33°46' W 118°14'0 0.0
2015-Apr-19 07:21N 33°46' W 118°14'0 0.0
2015-Apr-19 06:12N 33°46' W 118°14'0 0.0
2015-Apr-19 05:30N 33°46' W 118°14'0 0.0
2015-Apr-19 04:12N 33°46' W 118°14'0 0.0
2015-Apr-19 03:30N 33°46' W 118°14'0 0.0
2015-Apr-19 02:30N 33°46' W 118°14'0 0.0
2015-Apr-19 01:33N 33°46' W 118°14'0 0.0
2015-Apr-19 00:33N 33°46' W 118°14'0 0.0
2015-Apr-18 23:30N 33°46' W 118°14'0 0.1
2015-Apr-18 22:33N 33°46' W 118°14'2 1.9
2015-Apr-18 21:33N 33°44' W 118°13'0 0.1
2015-Apr-18 20:33N 33°44' W 118°13'0 0.0
2015-Apr-18 19:33N 33°44' W 118°13'0 0.1
2015-Apr-18 18:33N 33°44' W 118°13'0 0.0
2015-Apr-18 17:33N 33°44' W 118°13'0 0.1
2015-Apr-18 16:33N 33°44' W 118°13'0 0.1
2015-Apr-18 15:30N 33°44' W 118°13'0 0.1
2015-Apr-18 14:30N 33°44' W 118°13'0 0.1
2015-Apr-18 13:33N 33°44' W 118°13'0 0.0
2015-Apr-18 12:30N 33°44' W 118°13'0 0.1
2015-Apr-18 11:33N 33°44' W 118°13'0 0.1
2015-Apr-18 10:30N 33°44' W 118°13'2 1.7
2015-Apr-18 09:33N 33°43' W 118°11'8 8.2
2015-Apr-18 08:33N 33°36' W 118°15'8 8.2
2015-Apr-18 07:33N 33°38' W 118°25'1111.5
2015-Apr-18 06:33N 33°43' W 118°37'1211.8
2015-Apr-18 05:33N 33°49' W 118°49'1211.6
2015-Apr-18 04:33N 33°55' W 119°01'1211.6
2015-Apr-18 03:33N 34°01' W 119°13'8 5.4
2015-Apr-18 02:06N 34°09' W 119°12'0 0.0
2015-Apr-18 01:33N 34°09' W 119°12'0 0.0
2015-Apr-18 00:33N 34°09' W 119°12'0 0.0
2015-Apr-17 21:33N 34°09' W 119°12'0 0.0
2015-Apr-17 20:33N 34°09' W 119°12'0 0.0
2015-Apr-17 19:33N 34°09' W 119°12'0 0.0
2015-Apr-17 03:09N 34°09' W 119°12'0 0.0
2015-Apr-16 02:06N 34°09' W 119°12'0 0.0
2015-Apr-16 01:33N 34°09' W 119°12'0 0.0
2015-Apr-16 00:30N 34°09' W 119°12'0 0.0
2015-Apr-15 23:33N 34°09' W 119°12'5 5.0
2015-Apr-15 22:33N 34°04' W 119°15'8 8.1
2015-Apr-15 21:34N 34°00' W 119°07'9 8.9
2015-Apr-15 20:33N 33°56' W 118°57'9 9.2
2015-Apr-15 19:32N 33°51' W 118°47'10 9.8
2015-Apr-15 18:33N 33°46' W 118°38'10 9.7
2015-Apr-15 17:33N 33°41' W 118°27'10 9.7
2015-Apr-15 16:33N 33°38' W 118°17'9 9.4
2015-Apr-15 15:33N 33°32' W 118°08'1110.8
2015-Apr-15 14:33N 33°22' W 118°03'1211.8
2015-Apr-15 13:33N 33°11' W 117°58'1212.4
2015-Apr-15 12:33N 32°59' W 117°54'1413.9
2015-Apr-15 11:33N 32°46' W 117°48'1414.0
2015-Apr-15 10:34N 32°33' W 117°42'1413.7
2015-Apr-15 09:33N 32°20' W 117°37'1613.3
2015-Apr-15 08:22N 32°05' W 117°31'3812.4
2015-Apr-15 05:18N 31°29' W 117°16'911.4
2015-Apr-15 04:32N 31°21' W 117°12'1111.4
2015-Apr-15 03:33N 31°10' W 117°08'2411.5
2015-Apr-15 01:29N 30°48' W 116°58'21612.7
2015-Apr-14 08:32N 27°28' W 115°24'  

Dump ship's entire track history